sensor_id;sensor_type;location;lat;lon;timestamp;P1;durP1;ratioP1;P2;durP2;ratioP2
4575;SDS011;2300;51.874;8.430;2023-10-09T00:01:24;10.40;;;5.27;;
4575;SDS011;2300;51.874;8.430;2023-10-09T00:03:52;10.73;;;5.97;;
4575;SDS011;2300;51.874;8.430;2023-10-09T00:06:20;12.00;;;5.80;;
4575;SDS011;2300;51.874;8.430;2023-10-09T00:08:56;11.03;;;5.60;;
4575;SDS011;2300;51.874;8.430;2023-10-09T00:11:36;11.07;;;6.10;;
4575;SDS011;2300;51.874;8.430;2023-10-09T00:14:08;13.03;;;6.00;;
4575;SDS011;2300;51.874;8.430;2023-10-09T00:16:36;16.27;;;6.70;;
4575;SDS011;2300;51.874;8.430;2023-10-09T00:19:08;11.47;;;5.93;;
4575;SDS011;2300;51.874;8.430;2023-10-09T00:21:43;11.43;;;6.13;;
4575;SDS011;2300;51.874;8.430;2023-10-09T00:24:10;13.10;;;6.60;;
4575;SDS011;2300;51.874;8.430;2023-10-09T00:26:47;11.23;;;6.57;;
4575;SDS011;2300;51.874;8.430;2023-10-09T00:29:15;14.73;;;6.83;;
4575;SDS011;2300;51.874;8.430;2023-10-09T00:31:47;14.40;;;7.13;;
4575;SDS011;2300;51.874;8.430;2023-10-09T00:34:21;15.43;;;7.77;;
4575;SDS011;2300;51.874;8.430;2023-10-09T00:36:51;14.57;;;7.73;;
4575;SDS011;2300;51.874;8.430;2023-10-09T00:39:19;17.50;;;8.27;;
4575;SDS011;2300;51.874;8.430;2023-10-09T00:42:05;16.83;;;7.97;;
4575;SDS011;2300;51.874;8.430;2023-10-09T00:44:34;14.20;;;8.00;;
4575;SDS011;2300;51.874;8.430;2023-10-09T00:47:05;18.87;;;8.33;;
4575;SDS011;2300;51.874;8.430;2023-10-09T00:49:35;19.90;;;8.47;;
4575;SDS011;2300;51.874;8.430;2023-10-09T00:52:07;19.43;;;9.57;;
4575;SDS011;2300;51.874;8.430;2023-10-09T00:54:43;13.83;;;8.47;;
4575;SDS011;2300;51.874;8.430;2023-10-09T00:57:16;19.70;;;10.20;;
4575;SDS011;2300;51.874;8.430;2023-10-09T00:59:51;24.30;;;10.33;;
4575;SDS011;2300;51.874;8.430;2023-10-09T01:02:25;21.70;;;10.70;;
4575;SDS011;2300;51.874;8.430;2023-10-09T01:05:00;20.20;;;10.57;;
4575;SDS011;2300;51.874;8.430;2023-10-09T01:07:43;22.30;;;10.37;;
4575;SDS011;2300;51.874;8.430;2023-10-09T01:10:12;19.87;;;10.43;;
4575;SDS011;2300;51.874;8.430;2023-10-09T01:12:41;22.97;;;11.90;;
4575;SDS011;2300;51.874;8.430;2023-10-09T01:15:11;23.63;;;10.87;;
4575;SDS011;2300;51.874;8.430;2023-10-09T01:18:01;25.70;;;12.60;;
4575;SDS011;2300;51.874;8.430;2023-10-09T01:20:32;21.37;;;11.47;;
4575;SDS011;2300;51.874;8.430;2023-10-09T01:23:08;23.67;;;12.17;;
4575;SDS011;2300;51.874;8.430;2023-10-09T01:25:35;22.57;;;12.67;;
4575;SDS011;2300;51.874;8.430;2023-10-09T01:28:08;30.00;;;13.33;;
4575;SDS011;2300;51.874;8.430;2023-10-09T01:30:35;27.43;;;13.60;;
4575;SDS011;2300;51.874;8.430;2023-10-09T01:33:06;24.83;;;13.33;;
4575;SDS011;2300;51.874;8.430;2023-10-09T01:35:39;27.87;;;12.83;;
4575;SDS011;2300;51.874;8.430;2023-10-09T01:38:14;28.87;;;14.53;;
4575;SDS011;2300;51.874;8.430;2023-10-09T01:40:41;28.30;;;14.50;;
4575;SDS011;2300;51.874;8.430;2023-10-09T01:43:09;29.57;;;15.73;;
4575;SDS011;2300;51.874;8.430;2023-10-09T01:45:36;29.40;;;14.60;;
4575;SDS011;2300;51.874;8.430;2023-10-09T01:48:07;31.03;;;17.23;;
4575;SDS011;2300;51.874;8.430;2023-10-09T01:50:34;32.23;;;17.33;;
4575;SDS011;2300;51.874;8.430;2023-10-09T01:53:02;34.37;;;17.60;;
4575;SDS011;2300;51.874;8.430;2023-10-09T01:55:32;34.37;;;16.47;;
4575;SDS011;2300;51.874;8.430;2023-10-09T01:58:02;38.90;;;17.63;;
4575;SDS011;2300;51.874;8.430;2023-10-09T02:00:31;27.63;;;16.20;;
4575;SDS011;2300;51.874;8.430;2023-10-09T02:03:06;31.63;;;16.73;;
4575;SDS011;2300;51.874;8.430;2023-10-09T02:05:38;37.03;;;16.83;;
4575;SDS011;2300;51.874;8.430;2023-10-09T02:08:04;32.20;;;17.23;;
4575;SDS011;2300;51.874;8.430;2023-10-09T02:10:33;34.67;;;16.20;;
4575;SDS011;2300;51.874;8.430;2023-10-09T02:13:03;32.60;;;17.07;;
4575;SDS011;2300;51.874;8.430;2023-10-09T02:15:32;35.33;;;17.37;;
4575;SDS011;2300;51.874;8.430;2023-10-09T02:18:18;30.27;;;16.10;;
4575;SDS011;2300;51.874;8.430;2023-10-09T02:21:05;39.30;;;16.67;;
4575;SDS011;2300;51.874;8.430;2023-10-09T02:23:38;37.50;;;17.57;;
4575;SDS011;2300;51.874;8.430;2023-10-09T02:26:07;35.30;;;16.70;;
4575;SDS011;2300;51.874;8.430;2023-10-09T02:28:44;37.53;;;18.27;;
4575;SDS011;2300;51.874;8.430;2023-10-09T02:31:17;37.60;;;17.73;;
4575;SDS011;2300;51.874;8.430;2023-10-09T02:33:47;32.60;;;17.20;;
4575;SDS011;2300;51.874;8.430;2023-10-09T02:36:18;38.63;;;23.13;;
4575;SDS011;2300;51.874;8.430;2023-10-09T02:38:45;40.20;;;23.60;;
4575;SDS011;2300;51.874;8.430;2023-10-09T02:41:15;39.97;;;20.97;;
4575;SDS011;2300;51.874;8.430;2023-10-09T02:43:47;34.07;;;17.77;;
4575;SDS011;2300;51.874;8.430;2023-10-09T02:46:16;35.67;;;17.30;;
4575;SDS011;2300;51.874;8.430;2023-10-09T02:48:44;31.53;;;17.07;;
4575;SDS011;2300;51.874;8.430;2023-10-09T02:51:15;32.00;;;18.07;;
4575;SDS011;2300;51.874;8.430;2023-10-09T02:53:57;37.23;;;18.83;;
4575;SDS011;2300;51.874;8.430;2023-10-09T02:56:34;31.87;;;17.80;;
4575;SDS011;2300;51.874;8.430;2023-10-09T02:59:03;31.90;;;16.63;;
4575;SDS011;2300;51.874;8.430;2023-10-09T03:01:31;32.50;;;16.57;;
4575;SDS011;2300;51.874;8.430;2023-10-09T03:03:59;28.63;;;16.07;;
4575;SDS011;2300;51.874;8.430;2023-10-09T03:06:27;31.40;;;16.97;;
4575;SDS011;2300;51.874;8.430;2023-10-09T03:08:56;30.00;;;16.57;;
4575;SDS011;2300;51.874;8.430;2023-10-09T03:11:22;36.53;;;17.57;;
4575;SDS011;2300;51.874;8.430;2023-10-09T03:13:53;32.30;;;17.47;;
4575;SDS011;2300;51.874;8.430;2023-10-09T03:16:21;30.00;;;17.30;;
4575;SDS011;2300;51.874;8.430;2023-10-09T03:18:47;31.90;;;16.90;;
4575;SDS011;2300;51.874;8.430;2023-10-09T03:21:15;34.50;;;18.37;;
4575;SDS011;2300;51.874;8.430;2023-10-09T03:23:42;33.83;;;17.90;;
4575;SDS011;2300;51.874;8.430;2023-10-09T03:26:10;33.67;;;18.23;;
4575;SDS011;2300;51.874;8.430;2023-10-09T03:28:36;36.53;;;18.87;;
4575;SDS011;2300;51.874;8.430;2023-10-09T03:31:04;41.10;;;19.90;;
4575;SDS011;2300;51.874;8.430;2023-10-09T03:33:32;42.83;;;22.10;;
4575;SDS011;2300;51.874;8.430;2023-10-09T03:35:59;37.77;;;20.77;;
4575;SDS011;2300;51.874;8.430;2023-10-09T03:38:25;41.13;;;21.33;;
4575;SDS011;2300;51.874;8.430;2023-10-09T03:40:54;38.90;;;21.60;;
4575;SDS011;2300;51.874;8.430;2023-10-09T03:43:21;41.57;;;22.47;;
4575;SDS011;2300;51.874;8.430;2023-10-09T03:45:47;40.50;;;21.23;;
4575;SDS011;2300;51.874;8.430;2023-10-09T03:48:19;47.03;;;23.13;;
4575;SDS011;2300;51.874;8.430;2023-10-09T03:50:48;47.57;;;23.97;;
4575;SDS011;2300;51.874;8.430;2023-10-09T03:53:24;46.20;;;22.73;;
4575;SDS011;2300;51.874;8.430;2023-10-09T03:55:51;46.50;;;22.93;;
4575;SDS011;2300;51.874;8.430;2023-10-09T03:58:18;40.33;;;22.00;;
4575;SDS011;2300;51.874;8.430;2023-10-09T04:00:44;45.60;;;23.70;;
4575;SDS011;2300;51.874;8.430;2023-10-09T04:03:11;40.27;;;21.83;;
4575;SDS011;2300;51.874;8.430;2023-10-09T04:05:40;43.77;;;23.40;;
4575;SDS011;2300;51.874;8.430;2023-10-09T04:08:08;40.53;;;22.67;;
4575;SDS011;2300;51.874;8.430;2023-10-09T04:10:41;43.27;;;24.13;;
4575;SDS011;2300;51.874;8.430;2023-10-09T04:13:16;47.10;;;22.00;;
4575;SDS011;2300;51.874;8.430;2023-10-09T04:15:48;41.00;;;22.00;;
4575;SDS011;2300;51.874;8.430;2023-10-09T04:18:17;45.23;;;22.93;;
4575;SDS011;2300;51.874;8.430;2023-10-09T04:20:54;43.43;;;22.40;;
4575;SDS011;2300;51.874;8.430;2023-10-09T04:23:37;37.63;;;22.77;;
4575;SDS011;2300;51.874;8.430;2023-10-09T04:26:24;44.17;;;23.13;;
4575;SDS011;2300;51.874;8.430;2023-10-09T04:28:50;46.43;;;24.73;;
4575;SDS011;2300;51.874;8.430;2023-10-09T04:31:18;42.37;;;23.33;;
4575;SDS011;2300;51.874;8.430;2023-10-09T04:33:47;45.27;;;24.13;;
4575;SDS011;2300;51.874;8.430;2023-10-09T04:36:41;48.63;;;25.90;;
4575;SDS011;2300;51.874;8.430;2023-10-09T04:39:14;48.80;;;25.63;;
4575;SDS011;2300;51.874;8.430;2023-10-09T04:42:00;45.72;;;25.40;;
4575;SDS011;2300;51.874;8.430;2023-10-09T04:44:40;51.43;;;27.57;;
4575;SDS011;2300;51.874;8.430;2023-10-09T04:47:25;55.10;;;28.43;;
4575;SDS011;2300;51.874;8.430;2023-10-09T04:50:01;64.03;;;35.13;;
4575;SDS011;2300;51.874;8.430;2023-10-09T04:52:38;69.77;;;34.93;;
4575;SDS011;2300;51.874;8.430;2023-10-09T04:55:19;72.23;;;37.37;;
4575;SDS011;2300;51.874;8.430;2023-10-09T04:57:50;80.00;;;40.30;;
4575;SDS011;2300;51.874;8.430;2023-10-09T05:00:38;86.07;;;43.37;;
4575;SDS011;2300;51.874;8.430;2023-10-09T05:03:27;98.80;;;47.93;;
4575;SDS011;2300;51.874;8.430;2023-10-09T05:06:08;101.03;;;50.80;;
4575;SDS011;2300;51.874;8.430;2023-10-09T05:08:48;103.70;;;49.33;;
4575;SDS011;2300;51.874;8.430;2023-10-09T05:11:14;104.03;;;50.17;;
4575;SDS011;2300;51.874;8.430;2023-10-09T05:13:59;99.37;;;49.47;;
4575;SDS011;2300;51.874;8.430;2023-10-09T05:16:36;98.25;;;47.55;;
4575;SDS011;2300;51.874;8.430;2023-10-09T05:19:19;97.87;;;48.03;;
4575;SDS011;2300;51.874;8.430;2023-10-09T05:21:58;89.80;;;45.97;;
4575;SDS011;2300;51.874;8.430;2023-10-09T05:24:30;84.85;;;45.85;;
4575;SDS011;2300;51.874;8.430;2023-10-09T05:27:08;91.88;;;45.47;;
4575;SDS011;2300;51.874;8.430;2023-10-09T05:29:43;95.45;;;47.60;;
4575;SDS011;2300;51.874;8.430;2023-10-09T05:32:24;95.88;;;49.20;;
4575;SDS011;2300;51.874;8.430;2023-10-09T05:34:55;87.68;;;46.45;;
4575;SDS011;2300;51.874;8.430;2023-10-09T05:37:33;88.18;;;45.53;;
4575;SDS011;2300;51.874;8.430;2023-10-09T05:40:01;79.43;;;44.22;;
4575;SDS011;2300;51.874;8.430;2023-10-09T05:42:47;89.35;;;45.45;;
4575;SDS011;2300;51.874;8.430;2023-10-09T05:45:22;85.05;;;44.85;;
4575;SDS011;2300;51.874;8.430;2023-10-09T05:48:07;89.95;;;45.40;;
4575;SDS011;2300;51.874;8.430;2023-10-09T05:50:54;82.88;;;43.47;;
4575;SDS011;2300;51.874;8.430;2023-10-09T05:53:38;82.23;;;42.50;;
4575;SDS011;2300;51.874;8.430;2023-10-09T05:56:19;82.28;;;44.85;;
4575;SDS011;2300;51.874;8.430;2023-10-09T05:59:04;75.60;;;41.22;;
4575;SDS011;2300;51.874;8.430;2023-10-09T06:01:48;74.97;;;42.20;;
4575;SDS011;2300;51.874;8.430;2023-10-09T06:04:37;73.85;;;38.35;;
4575;SDS011;2300;51.874;8.430;2023-10-09T06:07:19;73.83;;;39.70;;
4575;SDS011;2300;51.874;8.430;2023-10-09T06:09:49;67.97;;;39.13;;
4575;SDS011;2300;51.874;8.430;2023-10-09T06:12:18;73.90;;;37.88;;
4575;SDS011;2300;51.874;8.430;2023-10-09T06:15:14;68.15;;;37.30;;
4575;SDS011;2300;51.874;8.430;2023-10-09T06:18:15;75.30;;;39.53;;
4575;SDS011;2300;51.874;8.430;2023-10-09T06:20:57;69.85;;;41.03;;
4575;SDS011;2300;51.874;8.430;2023-10-09T06:23:49;75.55;;;40.80;;
4575;SDS011;2300;51.874;8.430;2023-10-09T06:26:40;79.45;;;41.53;;
4575;SDS011;2300;51.874;8.430;2023-10-09T06:29:17;70.60;;;41.97;;
4575;SDS011;2300;51.874;8.430;2023-10-09T06:32:00;74.93;;;41.95;;
4575;SDS011;2300;51.874;8.430;2023-10-09T06:34:41;73.32;;;41.63;;
4575;SDS011;2300;51.874;8.430;2023-10-09T06:37:11;75.60;;;42.58;;
4575;SDS011;2300;51.874;8.430;2023-10-09T06:39:59;68.40;;;40.50;;
4575;SDS011;2300;51.874;8.430;2023-10-09T06:42:44;70.65;;;39.55;;
4575;SDS011;2300;51.874;8.430;2023-10-09T06:45:18;70.10;;;40.70;;
4575;SDS011;2300;51.874;8.430;2023-10-09T06:47:46;66.00;;;38.97;;
4575;SDS011;2300;51.874;8.430;2023-10-09T06:50:21;62.45;;;36.17;;
4575;SDS011;2300;51.874;8.430;2023-10-09T06:52:51;59.10;;;36.10;;
4575;SDS011;2300;51.874;8.430;2023-10-09T06:55:43;56.90;;;35.30;;
4575;SDS011;2300;51.874;8.430;2023-10-09T06:58:14;53.78;;;33.95;;
4575;SDS011;2300;51.874;8.430;2023-10-09T07:00:49;54.42;;;33.50;;
4575;SDS011;2300;51.874;8.430;2023-10-09T07:03:40;46.90;;;30.88;;
4575;SDS011;2300;51.874;8.430;2023-10-09T07:06:17;49.45;;;30.75;;
4575;SDS011;2300;51.874;8.430;2023-10-09T07:08:48;46.90;;;29.75;;
4575;SDS011;2300;51.874;8.430;2023-10-09T07:11:37;45.33;;;29.17;;
4575;SDS011;2300;51.874;8.430;2023-10-09T07:14:23;44.42;;;27.65;;
4575;SDS011;2300;51.874;8.430;2023-10-09T07:17:14;43.30;;;27.15;;
4575;SDS011;2300;51.874;8.430;2023-10-09T07:19:48;40.97;;;27.02;;
4575;SDS011;2300;51.874;8.430;2023-10-09T07:22:37;39.47;;;26.40;;
4575;SDS011;2300;51.874;8.430;2023-10-09T07:25:17;41.47;;;26.42;;
4575;SDS011;2300;51.874;8.430;2023-10-09T07:28:05;41.83;;;26.83;;
4575;SDS011;2300;51.874;8.430;2023-10-09T07:30:43;39.95;;;25.85;;
4575;SDS011;2300;51.874;8.430;2023-10-09T07:33:12;38.97;;;26.23;;
4575;SDS011;2300;51.874;8.430;2023-10-09T07:35:55;43.65;;;26.83;;
4575;SDS011;2300;51.874;8.430;2023-10-09T07:38:24;42.22;;;26.17;;
4575;SDS011;2300;51.874;8.430;2023-10-09T07:40:54;41.92;;;25.70;;
4575;SDS011;2300;51.874;8.430;2023-10-09T07:43:25;37.83;;;24.88;;
4575;SDS011;2300;51.874;8.430;2023-10-09T07:46:01;43.95;;;25.85;;
4575;SDS011;2300;51.874;8.430;2023-10-09T07:48:47;44.17;;;24.33;;
4575;SDS011;2300;51.874;8.430;2023-10-09T07:51:18;38.97;;;24.73;;
4575;SDS011;2300;51.874;8.430;2023-10-09T07:53:48;36.20;;;24.05;;
4575;SDS011;2300;51.874;8.430;2023-10-09T07:56:22;39.80;;;24.35;;
4575;SDS011;2300;51.874;8.430;2023-10-09T07:58:49;35.67;;;23.33;;
4575;SDS011;2300;51.874;8.430;2023-10-09T08:01:16;35.25;;;23.38;;
4575;SDS011;2300;51.874;8.430;2023-10-09T08:03:49;42.05;;;23.40;;
4575;SDS011;2300;51.874;8.430;2023-10-09T08:06:26;35.40;;;23.10;;
4575;SDS011;2300;51.874;8.430;2023-10-09T08:09:04;34.05;;;21.92;;
4575;SDS011;2300;51.874;8.430;2023-10-09T08:11:53;34.22;;;22.17;;
4575;SDS011;2300;51.874;8.430;2023-10-09T08:14:37;32.20;;;21.38;;
4575;SDS011;2300;51.874;8.430;2023-10-09T08:17:10;30.92;;;21.05;;
4575;SDS011;2300;51.874;8.430;2023-10-09T08:19:42;36.28;;;21.35;;
4575;SDS011;2300;51.874;8.430;2023-10-09T08:22:22;33.17;;;21.25;;
4575;SDS011;2300;51.874;8.430;2023-10-09T08:25:08;32.45;;;20.85;;
4575;SDS011;2300;51.874;8.430;2023-10-09T08:27:51;30.67;;;19.65;;
4575;SDS011;2300;51.874;8.430;2023-10-09T08:30:20;35.13;;;20.90;;
4575;SDS011;2300;51.874;8.430;2023-10-09T08:33:06;39.13;;;20.92;;
4575;SDS011;2300;51.874;8.430;2023-10-09T08:35:48;38.83;;;21.77;;
4575;SDS011;2300;51.874;8.430;2023-10-09T08:38:16;32.90;;;20.42;;
4575;SDS011;2300;51.874;8.430;2023-10-09T08:40:48;35.90;;;22.35;;
4575;SDS011;2300;51.874;8.430;2023-10-09T08:43:16;33.20;;;20.40;;
4575;SDS011;2300;51.874;8.430;2023-10-09T08:45:45;35.38;;;21.60;;
4575;SDS011;2300;51.874;8.430;2023-10-09T08:48:13;35.08;;;21.10;;
4575;SDS011;2300;51.874;8.430;2023-10-09T08:50:41;30.80;;;19.67;;
4575;SDS011;2300;51.874;8.430;2023-10-09T08:53:11;33.08;;;20.95;;
4575;SDS011;2300;51.874;8.430;2023-10-09T08:55:39;33.17;;;20.45;;
4575;SDS011;2300;51.874;8.430;2023-10-09T08:58:07;34.60;;;20.83;;
4575;SDS011;2300;51.874;8.430;2023-10-09T09:00:45;32.72;;;20.42;;
4575;SDS011;2300;51.874;8.430;2023-10-09T09:03:13;32.38;;;20.70;;
4575;SDS011;2300;51.874;8.430;2023-10-09T09:05:43;34.28;;;20.95;;
4575;SDS011;2300;51.874;8.430;2023-10-09T09:10:58;30.80;;;21.27;;
4575;SDS011;2300;51.874;8.430;2023-10-09T09:13:36;33.78;;;21.08;;
4575;SDS011;2300;51.874;8.430;2023-10-09T09:16:06;36.25;;;20.83;;
4575;SDS011;2300;51.874;8.430;2023-10-09T09:18:47;35.00;;;21.65;;
4575;SDS011;2300;51.874;8.430;2023-10-09T09:21:17;34.17;;;20.58;;
4575;SDS011;2300;51.874;8.430;2023-10-09T09:23:58;36.78;;;20.88;;
4575;SDS011;2300;51.874;8.430;2023-10-09T09:26:34;33.95;;;21.15;;
4575;SDS011;2300;51.874;8.430;2023-10-09T09:29:03;27.42;;;18.50;;
4575;SDS011;2300;51.874;8.430;2023-10-09T09:31:32;31.27;;;20.25;;
4575;SDS011;2300;51.874;8.430;2023-10-09T09:34:03;29.92;;;19.83;;
4575;SDS011;2300;51.874;8.430;2023-10-09T09:36:37;31.45;;;20.08;;
4575;SDS011;2300;51.874;8.430;2023-10-09T09:39:20;31.27;;;19.38;;
4575;SDS011;2300;51.874;8.430;2023-10-09T09:41:54;30.83;;;19.35;;
4575;SDS011;2300;51.874;8.430;2023-10-09T09:44:22;30.17;;;18.92;;
4575;SDS011;2300;51.874;8.430;2023-10-09T09:46:52;28.98;;;18.80;;
4575;SDS011;2300;51.874;8.430;2023-10-09T09:49:20;27.25;;;17.83;;
4575;SDS011;2300;51.874;8.430;2023-10-09T09:51:48;29.25;;;18.42;;
4575;SDS011;2300;51.874;8.430;2023-10-09T09:54:15;27.30;;;18.83;;
4575;SDS011;2300;51.874;8.430;2023-10-09T09:56:44;30.48;;;19.25;;
4575;SDS011;2300;51.874;8.430;2023-10-09T09:59:15;28.08;;;18.33;;
4575;SDS011;2300;51.874;8.430;2023-10-09T10:01:47;29.50;;;18.23;;
4575;SDS011;2300;51.874;8.430;2023-10-09T10:04:22;28.67;;;19.33;;
4575;SDS011;2300;51.874;8.430;2023-10-09T10:06:53;31.35;;;20.17;;
4575;SDS011;2300;51.874;8.430;2023-10-09T10:09:35;29.13;;;18.95;;
4575;SDS011;2300;51.874;8.430;2023-10-09T10:12:05;32.30;;;19.95;;
4575;SDS011;2300;51.874;8.430;2023-10-09T10:17:22;28.73;;;19.10;;
4575;SDS011;2300;51.874;8.430;2023-10-09T10:19:58;28.15;;;18.88;;
4575;SDS011;2300;51.874;8.430;2023-10-09T10:22:25;30.27;;;18.05;;
4575;SDS011;2300;51.874;8.430;2023-10-09T10:24:53;25.38;;;18.13;;
4575;SDS011;2300;51.874;8.430;2023-10-09T10:27:24;27.83;;;18.20;;
4575;SDS011;2300;51.874;8.430;2023-10-09T10:30:28;28.15;;;18.02;;
4575;SDS011;2300;51.874;8.430;2023-10-09T10:33:02;28.42;;;18.48;;
4575;SDS011;2300;51.874;8.430;2023-10-09T10:35:39;28.30;;;18.20;;
4575;SDS011;2300;51.874;8.430;2023-10-09T10:41:15;29.20;;;18.60;;
4575;SDS011;2300;51.874;8.430;2023-10-09T10:43:45;27.73;;;18.88;;
4575;SDS011;2300;51.874;8.430;2023-10-09T10:46:20;26.70;;;17.98;;
4575;SDS011;2300;51.874;8.430;2023-10-09T10:48:55;34.35;;;19.35;;
4575;SDS011;2300;51.874;8.430;2023-10-09T10:51:25;32.35;;;19.25;;
4575;SDS011;2300;51.874;8.430;2023-10-09T10:54:00;29.83;;;18.50;;
4575;SDS011;2300;51.874;8.430;2023-10-09T10:56:51;32.38;;;19.50;;
4575;SDS011;2300;51.874;8.430;2023-10-09T10:59:19;29.30;;;19.17;;
4575;SDS011;2300;51.874;8.430;2023-10-09T11:01:50;29.17;;;19.73;;
4575;SDS011;2300;51.874;8.430;2023-10-09T11:04:18;28.55;;;18.88;;
4575;SDS011;2300;51.874;8.430;2023-10-09T11:07:04;30.33;;;20.30;;
4575;SDS011;2300;51.874;8.430;2023-10-09T11:09:42;31.48;;;20.40;;
4575;SDS011;2300;51.874;8.430;2023-10-09T11:12:23;32.88;;;21.10;;
4575;SDS011;2300;51.874;8.430;2023-10-09T11:14:51;30.90;;;21.45;;
4575;SDS011;2300;51.874;8.430;2023-10-09T11:17:32;33.15;;;21.92;;
4575;SDS011;2300;51.874;8.430;2023-10-09T11:20:00;30.48;;;20.48;;
4575;SDS011;2300;51.874;8.430;2023-10-09T11:22:48;34.47;;;22.15;;
4575;SDS011;2300;51.874;8.430;2023-10-09T11:25:40;31.42;;;21.90;;
4575;SDS011;2300;51.874;8.430;2023-10-09T11:28:16;33.42;;;22.33;;
4575;SDS011;2300;51.874;8.430;2023-10-09T11:30:58;38.45;;;23.83;;
4575;SDS011;2300;51.874;8.430;2023-10-09T11:33:42;32.22;;;23.02;;
4575;SDS011;2300;51.874;8.430;2023-10-09T11:36:09;34.20;;;23.85;;
4575;SDS011;2300;51.874;8.430;2023-10-09T11:38:36;38.67;;;25.23;;
4575;SDS011;2300;51.874;8.430;2023-10-09T11:41:11;37.42;;;25.38;;
4575;SDS011;2300;51.874;8.430;2023-10-09T11:43:47;39.55;;;26.27;;
4575;SDS011;2300;51.874;8.430;2023-10-09T11:46:20;36.95;;;25.98;;
4575;SDS011;2300;51.874;8.430;2023-10-09T11:49:03;34.67;;;26.90;;
4575;SDS011;2300;51.874;8.430;2023-10-09T11:51:50;34.00;;;27.35;;
4575;SDS011;2300;51.874;8.430;2023-10-09T11:54:49;38.15;;;28.10;;
4575;SDS011;2300;51.874;8.430;2023-10-09T11:57:16;36.22;;;27.80;;
4575;SDS011;2300;51.874;8.430;2023-10-09T11:59:42;37.05;;;28.20;;
4575;SDS011;2300;51.874;8.430;2023-10-09T12:02:11;38.88;;;29.15;;
4575;SDS011;2300;51.874;8.430;2023-10-09T12:04:38;34.63;;;28.10;;
4575;SDS011;2300;51.874;8.430;2023-10-09T12:07:07;39.00;;;28.30;;
4575;SDS011;2300;51.874;8.430;2023-10-09T12:09:35;35.83;;;28.20;;
4575;SDS011;2300;51.874;8.430;2023-10-09T12:12:02;34.83;;;27.00;;
4575;SDS011;2300;51.874;8.430;2023-10-09T12:14:29;35.22;;;26.70;;
4575;SDS011;2300;51.874;8.430;2023-10-09T12:16:58;38.63;;;26.63;;
4575;SDS011;2300;51.874;8.430;2023-10-09T12:19:31;38.95;;;26.17;;
4575;SDS011;2300;51.874;8.430;2023-10-09T12:21:59;40.17;;;25.52;;
4575;SDS011;2300;51.874;8.430;2023-10-09T12:24:26;41.63;;;25.38;;
4575;SDS011;2300;51.874;8.430;2023-10-09T12:26:54;36.13;;;23.50;;
4575;SDS011;2300;51.874;8.430;2023-10-09T12:29:20;34.25;;;23.33;;
4575;SDS011;2300;51.874;8.430;2023-10-09T12:31:47;32.95;;;22.75;;
4575;SDS011;2300;51.874;8.430;2023-10-09T12:34:14;34.58;;;23.42;;
4575;SDS011;2300;51.874;8.430;2023-10-09T12:36:42;33.92;;;23.58;;
4575;SDS011;2300;51.874;8.430;2023-10-09T12:39:11;32.10;;;22.35;;
4575;SDS011;2300;51.874;8.430;2023-10-09T12:41:42;33.92;;;23.33;;
4575;SDS011;2300;51.874;8.430;2023-10-09T12:44:09;36.53;;;23.42;;
4575;SDS011;2300;51.874;8.430;2023-10-09T12:46:40;34.38;;;22.65;;
4575;SDS011;2300;51.874;8.430;2023-10-09T12:49:07;34.45;;;23.30;;
4575;SDS011;2300;51.874;8.430;2023-10-09T12:51:35;34.22;;;23.42;;
4575;SDS011;2300;51.874;8.430;2023-10-09T12:54:06;32.35;;;22.65;;
4575;SDS011;2300;51.874;8.430;2023-10-09T12:56:33;36.03;;;22.92;;
4575;SDS011;2300;51.874;8.430;2023-10-09T12:59:02;35.05;;;23.35;;
4575;SDS011;2300;51.874;8.430;2023-10-09T13:01:30;31.73;;;22.30;;
4575;SDS011;2300;51.874;8.430;2023-10-09T13:03:57;34.35;;;22.58;;
4575;SDS011;2300;51.874;8.430;2023-10-09T13:06:25;33.58;;;22.27;;
4575;SDS011;2300;51.874;8.430;2023-10-09T13:08:51;35.35;;;22.15;;
4575;SDS011;2300;51.874;8.430;2023-10-09T13:11:22;33.95;;;22.27;;
4575;SDS011;2300;51.874;8.430;2023-10-09T13:13:50;33.67;;;22.90;;
4575;SDS011;2300;51.874;8.430;2023-10-09T13:16:18;33.63;;;22.67;;
4575;SDS011;2300;51.874;8.430;2023-10-09T13:18:48;33.22;;;21.85;;
4575;SDS011;2300;51.874;8.430;2023-10-09T13:21:16;33.72;;;22.50;;
4575;SDS011;2300;51.874;8.430;2023-10-09T13:23:43;32.63;;;22.33;;
4575;SDS011;2300;51.874;8.430;2023-10-09T13:26:12;32.38;;;21.80;;
4575;SDS011;2300;51.874;8.430;2023-10-09T13:28:51;33.25;;;22.23;;
4575;SDS011;2300;51.874;8.430;2023-10-09T13:31:18;33.83;;;22.13;;
4575;SDS011;2300;51.874;8.430;2023-10-09T13:33:48;36.22;;;24.33;;
4575;SDS011;2300;51.874;8.430;2023-10-09T13:36:16;38.28;;;21.95;;
4575;SDS011;2300;51.874;8.430;2023-10-09T13:38:44;34.92;;;21.85;;
4575;SDS011;2300;51.874;8.430;2023-10-09T13:41:11;35.13;;;22.27;;
4575;SDS011;2300;51.874;8.430;2023-10-09T13:43:39;35.45;;;20.80;;
4575;SDS011;2300;51.874;8.430;2023-10-09T13:46:08;33.50;;;21.65;;
4575;SDS011;2300;51.874;8.430;2023-10-09T13:48:36;32.47;;;21.25;;
4575;SDS011;2300;51.874;8.430;2023-10-09T13:51:06;33.40;;;22.08;;
4575;SDS011;2300;51.874;8.430;2023-10-09T13:53:34;31.83;;;20.52;;
4575;SDS011;2300;51.874;8.430;2023-10-09T13:56:01;32.85;;;20.95;;
4575;SDS011;2300;51.874;8.430;2023-10-09T13:58:31;29.90;;;20.70;;
4575;SDS011;2300;51.874;8.430;2023-10-09T14:00:59;34.58;;;22.52;;
4575;SDS011;2300;51.874;8.430;2023-10-09T14:03:27;32.20;;;20.33;;
4575;SDS011;2300;51.874;8.430;2023-10-09T14:05:54;36.17;;;21.33;;
4575;SDS011;2300;51.874;8.430;2023-10-09T14:08:22;34.08;;;21.58;;
4575;SDS011;2300;51.874;8.430;2023-10-09T14:10:49;35.08;;;21.45;;
4575;SDS011;2300;51.874;8.430;2023-10-09T14:13:15;35.05;;;22.35;;
4575;SDS011;2300;51.874;8.430;2023-10-09T14:15:51;36.90;;;21.75;;
4575;SDS011;2300;51.874;8.430;2023-10-09T14:18:19;29.60;;;20.08;;
4575;SDS011;2300;51.874;8.430;2023-10-09T14:20:47;35.13;;;21.02;;
4575;SDS011;2300;51.874;8.430;2023-10-09T14:23:15;35.80;;;20.90;;
4575;SDS011;2300;51.874;8.430;2023-10-09T14:25:46;30.38;;;20.02;;
4575;SDS011;2300;51.874;8.430;2023-10-09T14:28:14;30.33;;;19.30;;
4575;SDS011;2300;51.874;8.430;2023-10-09T14:30:44;34.05;;;20.85;;
4575;SDS011;2300;51.874;8.430;2023-10-09T14:33:14;31.55;;;19.92;;
4575;SDS011;2300;51.874;8.430;2023-10-09T14:35:49;29.45;;;20.88;;
4575;SDS011;2300;51.874;8.430;2023-10-09T14:38:17;28.92;;;19.38;;
4575;SDS011;2300;51.874;8.430;2023-10-09T14:40:47;31.33;;;19.73;;
4575;SDS011;2300;51.874;8.430;2023-10-09T14:43:14;30.83;;;19.58;;
4575;SDS011;2300;51.874;8.430;2023-10-09T14:45:47;29.63;;;20.10;;
4575;SDS011;2300;51.874;8.430;2023-10-09T14:48:14;29.35;;;18.52;;
4575;SDS011;2300;51.874;8.430;2023-10-09T14:50:46;27.67;;;19.02;;
4575;SDS011;2300;51.874;8.430;2023-10-09T14:53:18;29.70;;;19.42;;
4575;SDS011;2300;51.874;8.430;2023-10-09T14:55:44;30.00;;;18.88;;
4575;SDS011;2300;51.874;8.430;2023-10-09T14:58:12;31.58;;;19.38;;
4575;SDS011;2300;51.874;8.430;2023-10-09T15:00:40;29.98;;;19.88;;
4575;SDS011;2300;51.874;8.430;2023-10-09T15:03:12;33.13;;;20.42;;
4575;SDS011;2300;51.874;8.430;2023-10-09T15:05:40;28.42;;;18.92;;
4575;SDS011;2300;51.874;8.430;2023-10-09T15:08:09;28.25;;;19.77;;
4575;SDS011;2300;51.874;8.430;2023-10-09T15:10:43;29.67;;;19.02;;
4575;SDS011;2300;51.874;8.430;2023-10-09T15:13:13;32.55;;;19.13;;
4575;SDS011;2300;51.874;8.430;2023-10-09T15:15:41;33.67;;;19.60;;
4575;SDS011;2300;51.874;8.430;2023-10-09T15:18:08;34.58;;;19.83;;
4575;SDS011;2300;51.874;8.430;2023-10-09T15:20:37;29.45;;;19.55;;
4575;SDS011;2300;51.874;8.430;2023-10-09T15:23:05;39.13;;;20.27;;
4575;SDS011;2300;51.874;8.430;2023-10-09T15:25:33;33.47;;;18.95;;
4575;SDS011;2300;51.874;8.430;2023-10-09T15:28:00;32.20;;;19.35;;
4575;SDS011;2300;51.874;8.430;2023-10-09T15:30:28;32.97;;;20.42;;
4575;SDS011;2300;51.874;8.430;2023-10-09T15:32:56;32.13;;;20.13;;